sensor_id;sensor_type;location;lat;lon;timestamp;P1;durP1;ratioP1;P2;durP2;ratioP2
6868;SDS011;3473;42.604;23.496;2022-11-23T00:00:43;1.57;;;1.23;;
6868;SDS011;3473;42.604;23.496;2022-11-23T00:02:14;2.50;;;1.33;;
6868;SDS011;3473;42.604;23.496;2022-11-23T00:03:46;8.37;;;2.13;;
6868;SDS011;3473;42.604;23.496;2022-11-23T00:05:17;9.43;;;3.03;;
6868;SDS011;3473;42.604;23.496;2022-11-23T00:06:48;8.50;;;2.30;;
6868;SDS011;3473;42.604;23.496;2022-11-23T00:08:20;1.67;;;1.20;;
6868;SDS011;3473;42.604;23.496;2022-11-23T00:09:51;8.50;;;2.53;;
6868;SDS011;3473;42.604;23.496;2022-11-23T00:11:23;6.53;;;2.00;;
6868;SDS011;3473;42.604;23.496;2022-11-23T00:12:56;9.50;;;1.63;;
6868;SDS011;3473;42.604;23.496;2022-11-23T00:14:27;2.97;;;1.63;;
6868;SDS011;3473;42.604;23.496;2022-11-23T00:15:58;4.80;;;1.00;;
6868;SDS011;3473;42.604;23.496;2022-11-23T00:17:29;1.53;;;1.00;;
6868;SDS011;3473;42.604;23.496;2022-11-23T00:19:00;3.70;;;1.20;;
6868;SDS011;3473;42.604;23.496;2022-11-23T00:20:32;2.50;;;1.30;;
6868;SDS011;3473;42.604;23.496;2022-11-23T00:22:02;3.87;;;0.70;;
6868;SDS011;3473;42.604;23.496;2022-11-23T00:23:34;1.77;;;0.90;;
6868;SDS011;3473;42.604;23.496;2022-11-23T00:25:06;0.70;;;0.43;;
6868;SDS011;3473;42.604;23.496;2022-11-23T00:26:36;0.63;;;0.47;;
6868;SDS011;3473;42.604;23.496;2022-11-23T00:28:09;2.50;;;0.80;;
6868;SDS011;3473;42.604;23.496;2022-11-23T00:29:41;0.60;;;0.57;;
6868;SDS011;3473;42.604;23.496;2022-11-23T00:31:13;4.63;;;1.57;;
6868;SDS011;3473;42.604;23.496;2022-11-23T00:32:45;2.53;;;1.40;;
6868;SDS011;3473;42.604;23.496;2022-11-23T00:34:16;0.70;;;0.50;;
6868;SDS011;3473;42.604;23.496;2022-11-23T00:35:57;2.33;;;0.70;;
6868;SDS011;3473;42.604;23.496;2022-11-23T00:37:28;1.33;;;0.50;;
6868;SDS011;3473;42.604;23.496;2022-11-23T00:39:00;2.10;;;0.70;;
6868;SDS011;3473;42.604;23.496;2022-11-23T00:40:31;1.73;;;0.70;;
6868;SDS011;3473;42.604;23.496;2022-11-23T00:42:02;0.63;;;0.63;;
6868;SDS011;3473;42.604;23.496;2022-11-23T00:43:34;0.90;;;0.70;;
6868;SDS011;3473;42.604;23.496;2022-11-23T00:45:05;5.37;;;1.73;;
6868;SDS011;3473;42.604;23.496;2022-11-23T00:46:37;0.40;;;0.40;;
6868;SDS011;3473;42.604;23.496;2022-11-23T00:48:08;1.00;;;0.50;;
6868;SDS011;3473;42.604;23.496;2022-11-23T00:49:40;0.97;;;0.83;;
6868;SDS011;3473;42.604;23.496;2022-11-23T00:51:11;0.23;;;0.23;;
6868;SDS011;3473;42.604;23.496;2022-11-23T00:52:43;6.03;;;0.53;;
6868;SDS011;3473;42.604;23.496;2022-11-23T00:54:14;0.43;;;0.43;;
6868;SDS011;3473;42.604;23.496;2022-11-23T00:55:49;1.23;;;0.63;;
6868;SDS011;3473;42.604;23.496;2022-11-23T00:57:20;5.83;;;0.80;;
6868;SDS011;3473;42.604;23.496;2022-11-23T00:58:53;0.80;;;0.50;;
6868;SDS011;3473;42.604;23.496;2022-11-23T01:00:25;0.30;;;0.30;;
6868;SDS011;3473;42.604;23.496;2022-11-23T01:01:56;0.60;;;0.60;;
6868;SDS011;3473;42.604;23.496;2022-11-23T01:03:28;0.87;;;0.50;;
6868;SDS011;3473;42.604;23.496;2022-11-23T01:04:59;4.93;;;1.40;;
6868;SDS011;3473;42.604;23.496;2022-11-23T01:06:31;0.70;;;0.70;;
6868;SDS011;3473;42.604;23.496;2022-11-23T01:08:04;0.30;;;0.30;;
6868;SDS011;3473;42.604;23.496;2022-11-23T01:09:35;2.60;;;1.30;;
6868;SDS011;3473;42.604;23.496;2022-11-23T01:11:07;2.77;;;1.20;;
6868;SDS011;3473;42.604;23.496;2022-11-23T01:12:39;0.67;;;0.60;;
6868;SDS011;3473;42.604;23.496;2022-11-23T01:14:12;3.80;;;1.60;;
6868;SDS011;3473;42.604;23.496;2022-11-23T01:15:47;0.70;;;0.70;;
6868;SDS011;3473;42.604;23.496;2022-11-23T01:17:18;1.13;;;0.77;;
6868;SDS011;3473;42.604;23.496;2022-11-23T01:18:50;1.23;;;0.90;;
6868;SDS011;3473;42.604;23.496;2022-11-23T01:20:22;0.80;;;0.77;;
6868;SDS011;3473;42.604;23.496;2022-11-23T01:21:52;1.63;;;0.50;;
6868;SDS011;3473;42.604;23.496;2022-11-23T01:23:24;1.80;;;0.53;;
6868;SDS011;3473;42.604;23.496;2022-11-23T01:24:55;0.77;;;0.70;;
6868;SDS011;3473;42.604;23.496;2022-11-23T01:26:27;0.60;;;0.60;;
6868;SDS011;3473;42.604;23.496;2022-11-23T01:27:58;0.93;;;0.70;;
6868;SDS011;3473;42.604;23.496;2022-11-23T01:29:30;0.37;;;0.37;;
6868;SDS011;3473;42.604;23.496;2022-11-23T01:31:02;0.63;;;0.63;;
6868;SDS011;3473;42.604;23.496;2022-11-23T01:32:34;1.93;;;0.50;;
6868;SDS011;3473;42.604;23.496;2022-11-23T01:34:05;0.80;;;0.63;;
6868;SDS011;3473;42.604;23.496;2022-11-23T01:35:37;2.27;;;0.93;;
6868;SDS011;3473;42.604;23.496;2022-11-23T01:37:09;1.13;;;0.87;;
6868;SDS011;3473;42.604;23.496;2022-11-23T01:38:40;0.73;;;0.57;;
6868;SDS011;3473;42.604;23.496;2022-11-23T01:40:12;1.00;;;0.67;;
6868;SDS011;3473;42.604;23.496;2022-11-23T01:41:44;1.30;;;0.40;;
6868;SDS011;3473;42.604;23.496;2022-11-23T01:43:15;0.60;;;0.60;;
6868;SDS011;3473;42.604;23.496;2022-11-23T01:44:49;0.93;;;0.50;;
6868;SDS011;3473;42.604;23.496;2022-11-23T01:46:21;0.50;;;0.43;;
6868;SDS011;3473;42.604;23.496;2022-11-23T01:47:52;1.17;;;0.70;;
6868;SDS011;3473;42.604;23.496;2022-11-23T01:49:23;2.03;;;1.40;;
6868;SDS011;3473;42.604;23.496;2022-11-23T01:50:55;2.33;;;1.50;;
6868;SDS011;3473;42.604;23.496;2022-11-23T01:52:28;1.63;;;1.00;;
6868;SDS011;3473;42.604;23.496;2022-11-23T01:54:00;0.30;;;0.30;;
6868;SDS011;3473;42.604;23.496;2022-11-23T01:55:31;0.90;;;0.67;;
6868;SDS011;3473;42.604;23.496;2022-11-23T01:57:04;1.40;;;1.00;;
6868;SDS011;3473;42.604;23.496;2022-11-23T01:58:37;2.60;;;1.20;;
6868;SDS011;3473;42.604;23.496;2022-11-23T02:00:12;4.10;;;1.80;;
6868;SDS011;3473;42.604;23.496;2022-11-23T02:01:43;1.60;;;1.37;;
6868;SDS011;3473;42.604;23.496;2022-11-23T02:03:15;2.37;;;1.07;;
6868;SDS011;3473;42.604;23.496;2022-11-23T02:04:46;2.30;;;0.97;;
6868;SDS011;3473;42.604;23.496;2022-11-23T02:06:20;2.90;;;1.40;;
6868;SDS011;3473;42.604;23.496;2022-11-23T02:07:53;3.97;;;1.80;;
6868;SDS011;3473;42.604;23.496;2022-11-23T02:09:25;3.20;;;1.63;;
6868;SDS011;3473;42.604;23.496;2022-11-23T02:10:56;3.77;;;1.00;;
6868;SDS011;3473;42.604;23.496;2022-11-23T02:12:28;4.93;;;1.10;;
6868;SDS011;3473;42.604;23.496;2022-11-23T02:13:59;3.00;;;1.10;;
6868;SDS011;3473;42.604;23.496;2022-11-23T02:15:32;1.17;;;0.90;;
6868;SDS011;3473;42.604;23.496;2022-11-23T02:17:03;2.27;;;1.07;;
6868;SDS011;3473;42.604;23.496;2022-11-23T02:18:35;3.20;;;0.83;;
6868;SDS011;3473;42.604;23.496;2022-11-23T02:20:08;2.23;;;0.90;;
6868;SDS011;3473;42.604;23.496;2022-11-23T02:21:40;1.47;;;0.80;;
6868;SDS011;3473;42.604;23.496;2022-11-23T02:23:15;3.57;;;1.57;;
6868;SDS011;3473;42.604;23.496;2022-11-23T02:24:50;5.23;;;1.17;;
6868;SDS011;3473;42.604;23.496;2022-11-23T02:26:25;0.47;;;0.47;;
6868;SDS011;3473;42.604;23.496;2022-11-23T02:27:57;1.97;;;1.13;;
6868;SDS011;3473;42.604;23.496;2022-11-23T02:29:28;2.10;;;1.00;;
6868;SDS011;3473;42.604;23.496;2022-11-23T02:30:59;2.07;;;0.70;;
6868;SDS011;3473;42.604;23.496;2022-11-23T02:32:31;0.93;;;0.80;;
6868;SDS011;3473;42.604;23.496;2022-11-23T02:34:03;1.67;;;0.77;;
6868;SDS011;3473;42.604;23.496;2022-11-23T02:35:34;3.13;;;1.20;;
6868;SDS011;3473;42.604;23.496;2022-11-23T02:37:07;8.13;;;1.23;;
6868;SDS011;3473;42.604;23.496;2022-11-23T02:38:38;0.87;;;0.57;;
6868;SDS011;3473;42.604;23.496;2022-11-23T02:40:11;2.40;;;1.00;;
6868;SDS011;3473;42.604;23.496;2022-11-23T02:41:47;1.17;;;0.93;;
6868;SDS011;3473;42.604;23.496;2022-11-23T02:43:19;1.10;;;0.77;;
6868;SDS011;3473;42.604;23.496;2022-11-23T02:44:52;2.53;;;0.93;;
6868;SDS011;3473;42.604;23.496;2022-11-23T02:46:26;1.97;;;0.70;;
6868;SDS011;3473;42.604;23.496;2022-11-23T02:47:56;2.77;;;1.17;;
6868;SDS011;3473;42.604;23.496;2022-11-23T02:49:28;1.80;;;0.80;;
6868;SDS011;3473;42.604;23.496;2022-11-23T02:50:59;0.97;;;0.87;;
6868;SDS011;3473;42.604;23.496;2022-11-23T02:52:31;1.63;;;1.03;;
6868;SDS011;3473;42.604;23.496;2022-11-23T02:54:01;11.17;;;2.10;;
6868;SDS011;3473;42.604;23.496;2022-11-23T02:55:33;2.03;;;1.30;;
6868;SDS011;3473;42.604;23.496;2022-11-23T02:57:05;2.93;;;1.23;;
6868;SDS011;3473;42.604;23.496;2022-11-23T02:58:37;1.13;;;0.80;;
6868;SDS011;3473;42.604;23.496;2022-11-23T03:00:08;5.40;;;1.00;;
6868;SDS011;3473;42.604;23.496;2022-11-23T03:01:40;0.50;;;0.50;;
6868;SDS011;3473;42.604;23.496;2022-11-23T03:03:10;2.47;;;1.03;;
6868;SDS011;3473;42.604;23.496;2022-11-23T03:04:42;3.50;;;0.80;;
6868;SDS011;3473;42.604;23.496;2022-11-23T03:06:13;1.40;;;1.00;;
6868;SDS011;3473;42.604;23.496;2022-11-23T03:07:44;1.90;;;1.20;;
6868;SDS011;3473;42.604;23.496;2022-11-23T03:09:15;4.27;;;1.47;;
6868;SDS011;3473;42.604;23.496;2022-11-23T03:10:47;2.73;;;1.33;;
6868;SDS011;3473;42.604;23.496;2022-11-23T03:12:20;4.63;;;1.90;;
6868;SDS011;3473;42.604;23.496;2022-11-23T03:13:51;2.00;;;1.23;;
6868;SDS011;3473;42.604;23.496;2022-11-23T03:15:23;4.13;;;1.77;;
6868;SDS011;3473;42.604;23.496;2022-11-23T03:16:54;1.77;;;1.07;;
6868;SDS011;3473;42.604;23.496;2022-11-23T03:18:25;4.37;;;0.93;;
6868;SDS011;3473;42.604;23.496;2022-11-23T03:19:56;3.80;;;1.20;;
6868;SDS011;3473;42.604;23.496;2022-11-23T03:21:28;1.20;;;0.93;;
6868;SDS011;3473;42.604;23.496;2022-11-23T03:22:59;2.40;;;1.20;;
6868;SDS011;3473;42.604;23.496;2022-11-23T03:24:31;1.63;;;0.73;;
6868;SDS011;3473;42.604;23.496;2022-11-23T03:26:02;3.30;;;1.00;;
6868;SDS011;3473;42.604;23.496;2022-11-23T03:27:35;2.73;;;1.00;;
6868;SDS011;3473;42.604;23.496;2022-11-23T03:29:06;3.07;;;1.43;;
6868;SDS011;3473;42.604;23.496;2022-11-23T03:30:38;5.60;;;1.60;;
6868;SDS011;3473;42.604;23.496;2022-11-23T03:32:09;1.83;;;0.60;;
6868;SDS011;3473;42.604;23.496;2022-11-23T03:33:41;1.37;;;1.00;;
6868;SDS011;3473;42.604;23.496;2022-11-23T03:35:12;1.37;;;0.77;;
6868;SDS011;3473;42.604;23.496;2022-11-23T03:36:44;1.30;;;0.90;;
6868;SDS011;3473;42.604;23.496;2022-11-23T03:38:15;1.10;;;0.60;;
6868;SDS011;3473;42.604;23.496;2022-11-23T03:39:47;2.00;;;0.60;;
6868;SDS011;3473;42.604;23.496;2022-11-23T03:41:18;2.90;;;0.90;;
6868;SDS011;3473;42.604;23.496;2022-11-23T03:42:51;4.13;;;0.80;;
6868;SDS011;3473;42.604;23.496;2022-11-23T03:44:23;0.27;;;0.27;;
6868;SDS011;3473;42.604;23.496;2022-11-23T03:45:53;1.27;;;1.00;;
6868;SDS011;3473;42.604;23.496;2022-11-23T03:47:24;1.17;;;0.90;;
6868;SDS011;3473;42.604;23.496;2022-11-23T03:48:56;0.70;;;0.70;;
6868;SDS011;3473;42.604;23.496;2022-11-23T03:50:26;0.80;;;0.70;;
6868;SDS011;3473;42.604;23.496;2022-11-23T03:51:59;2.20;;;0.77;;
6868;SDS011;3473;42.604;23.496;2022-11-23T03:53:29;1.10;;;0.90;;
6868;SDS011;3473;42.604;23.496;2022-11-23T03:55:01;1.23;;;0.90;;
6868;SDS011;3473;42.604;23.496;2022-11-23T03:56:32;0.40;;;0.40;;
6868;SDS011;3473;42.604;23.496;2022-11-23T03:58:05;0.57;;;0.50;;
6868;SDS011;3473;42.604;23.496;2022-11-23T03:59:36;0.60;;;0.60;;
6868;SDS011;3473;42.604;23.496;2022-11-23T04:01:08;1.60;;;1.00;;
6868;SDS011;3473;42.604;23.496;2022-11-23T04:02:38;0.67;;;0.57;;
6868;SDS011;3473;42.604;23.496;2022-11-23T04:04:10;1.40;;;0.57;;
6868;SDS011;3473;42.604;23.496;2022-11-23T04:05:41;0.40;;;0.40;;
6868;SDS011;3473;42.604;23.496;2022-11-23T04:07:13;0.57;;;0.37;;
6868;SDS011;3473;42.604;23.496;2022-11-23T04:08:45;4.63;;;1.20;;
6868;SDS011;3473;42.604;23.496;2022-11-23T04:10:15;6.17;;;2.93;;
6868;SDS011;3473;42.604;23.496;2022-11-23T04:11:47;1.13;;;1.07;;
6868;SDS011;3473;42.604;23.496;2022-11-23T04:13:20;3.47;;;0.80;;
6868;SDS011;3473;42.604;23.496;2022-11-23T04:14:51;0.40;;;0.40;;
6868;SDS011;3473;42.604;23.496;2022-11-23T04:16:23;1.20;;;0.70;;
6868;SDS011;3473;42.604;23.496;2022-11-23T04:17:54;1.37;;;0.50;;
6868;SDS011;3473;42.604;23.496;2022-11-23T04:19:26;3.93;;;1.47;;
6868;SDS011;3473;42.604;23.496;2022-11-23T04:20:57;0.63;;;0.30;;
6868;SDS011;3473;42.604;23.496;2022-11-23T04:22:29;1.23;;;0.83;;
6868;SDS011;3473;42.604;23.496;2022-11-23T04:24:00;0.30;;;0.30;;
6868;SDS011;3473;42.604;23.496;2022-11-23T04:25:32;0.63;;;0.63;;
6868;SDS011;3473;42.604;23.496;2022-11-23T04:27:03;0.10;;;0.10;;
6868;SDS011;3473;42.604;23.496;2022-11-23T04:28:35;0.70;;;0.70;;
6868;SDS011;3473;42.604;23.496;2022-11-23T04:30:07;1.07;;;0.80;;
6868;SDS011;3473;42.604;23.496;2022-11-23T04:31:39;4.77;;;0.77;;
6868;SDS011;3473;42.604;23.496;2022-11-23T04:33:10;0.30;;;0.30;;
6868;SDS011;3473;42.604;23.496;2022-11-23T04:34:41;1.20;;;0.60;;
6868;SDS011;3473;42.604;23.496;2022-11-23T04:36:13;0.40;;;0.33;;
6868;SDS011;3473;42.604;23.496;2022-11-23T04:37:44;0.53;;;0.53;;
6868;SDS011;3473;42.604;23.496;2022-11-23T04:39:15;0.20;;;0.20;;
6868;SDS011;3473;42.604;23.496;2022-11-23T04:40:47;1.53;;;0.60;;
6868;SDS011;3473;42.604;23.496;2022-11-23T04:42:18;2.83;;;1.00;;
6868;SDS011;3473;42.604;23.496;2022-11-23T04:43:51;0.57;;;0.57;;
6868;SDS011;3473;42.604;23.496;2022-11-23T04:45:23;0.10;;;0.10;;
6868;SDS011;3473;42.604;23.496;2022-11-23T04:46:54;1.17;;;0.57;;
6868;SDS011;3473;42.604;23.496;2022-11-23T04:48:26;1.63;;;1.00;;
6868;SDS011;3473;42.604;23.496;2022-11-23T04:49:57;0.60;;;0.60;;
6868;SDS011;3473;42.604;23.496;2022-11-23T04:51:28;0.73;;;0.50;;
6868;SDS011;3473;42.604;23.496;2022-11-23T04:52:59;0.67;;;0.30;;
6868;SDS011;3473;42.604;23.496;2022-11-23T04:54:30;1.00;;;0.53;;
6868;SDS011;3473;42.604;23.496;2022-11-23T04:56:02;0.47;;;0.47;;
6868;SDS011;3473;42.604;23.496;2022-11-23T04:57:33;0.20;;;0.20;;
6868;SDS011;3473;42.604;23.496;2022-11-23T04:59:05;1.23;;;0.87;;
6868;SDS011;3473;42.604;23.496;2022-11-23T05:00:37;1.53;;;0.87;;
6868;SDS011;3473;42.604;23.496;2022-11-23T05:02:08;0.47;;;0.43;;
6868;SDS011;3473;42.604;23.496;2022-11-23T05:03:40;0.80;;;0.37;;
6868;SDS011;3473;42.604;23.496;2022-11-23T05:05:11;1.47;;;0.70;;
6868;SDS011;3473;42.604;23.496;2022-11-23T05:06:43;0.50;;;0.50;;
6868;SDS011;3473;42.604;23.496;2022-11-23T05:08:14;0.87;;;0.43;;
6868;SDS011;3473;42.604;23.496;2022-11-23T05:09:46;0.57;;;0.20;;
6868;SDS011;3473;42.604;23.496;2022-11-23T05:11:17;0.30;;;0.30;;
6868;SDS011;3473;42.604;23.496;2022-11-23T05:12:49;0.10;;;0.10;;
6868;SDS011;3473;42.604;23.496;2022-11-23T05:14:22;0.70;;;0.70;;
6868;SDS011;3473;42.604;23.496;2022-11-23T05:15:53;1.20;;;0.90;;
6868;SDS011;3473;42.604;23.496;2022-11-23T05:17:25;0.83;;;0.53;;
6868;SDS011;3473;42.604;23.496;2022-11-23T05:18:56;2.40;;;0.40;;
6868;SDS011;3473;42.604;23.496;2022-11-23T05:20:28;0.90;;;0.70;;
6868;SDS011;3473;42.604;23.496;2022-11-23T05:21:59;1.43;;;0.90;;
6868;SDS011;3473;42.604;23.496;2022-11-23T05:23:30;2.90;;;1.53;;
6868;SDS011;3473;42.604;23.496;2022-11-23T05:25:02;2.23;;;1.23;;
6868;SDS011;3473;42.604;23.496;2022-11-23T05:26:33;3.13;;;1.73;;
6868;SDS011;3473;42.604;23.496;2022-11-23T05:28:04;1.67;;;1.37;;
6868;SDS011;3473;42.604;23.496;2022-11-23T05:29:36;3.47;;;1.37;;
6868;SDS011;3473;42.604;23.496;2022-11-23T05:31:08;4.27;;;1.97;;
6868;SDS011;3473;42.604;23.496;2022-11-23T05:32:39;3.40;;;2.03;;
6868;SDS011;3473;42.604;23.496;2022-11-23T05:34:11;3.80;;;2.20;;
6868;SDS011;3473;42.604;23.496;2022-11-23T05:35:42;4.67;;;2.17;;
6868;SDS011;3473;42.604;23.496;2022-11-23T05:37:14;1.83;;;1.50;;
6868;SDS011;3473;42.604;23.496;2022-11-23T05:38:44;5.00;;;1.73;;
6868;SDS011;3473;42.604;23.496;2022-11-23T05:40:16;1.83;;;1.30;;
6868;SDS011;3473;42.604;23.496;2022-11-23T05:41:47;2.70;;;1.27;;
6868;SDS011;3473;42.604;23.496;2022-11-23T05:43:19;3.57;;;2.07;;
6868;SDS011;3473;42.604;23.496;2022-11-23T05:44:51;6.80;;;2.80;;
6868;SDS011;3473;42.604;23.496;2022-11-23T05:46:22;3.87;;;1.97;;
6868;SDS011;3473;42.604;23.496;2022-11-23T05:47:54;3.03;;;2.17;;
6868;SDS011;3473;42.604;23.496;2022-11-23T05:49:26;3.17;;;1.90;;
6868;SDS011;3473;42.604;23.496;2022-11-23T05:50:56;4.00;;;1.80;;
6868;SDS011;3473;42.604;23.496;2022-11-23T05:52:27;2.33;;;1.40;;
6868;SDS011;3473;42.604;23.496;2022-11-23T05:53:59;3.73;;;1.73;;
6868;SDS011;3473;42.604;23.496;2022-11-23T05:55:31;3.33;;;1.50;;
6868;SDS011;3473;42.604;23.496;2022-11-23T05:57:02;3.10;;;2.00;;
6868;SDS011;3473;42.604;23.496;2022-11-23T05:58:33;5.27;;;1.77;;
6868;SDS011;3473;42.604;23.496;2022-11-23T06:00:06;2.83;;;1.70;;
6868;SDS011;3473;42.604;23.496;2022-11-23T06:01:39;5.23;;;1.93;;
6868;SDS011;3473;42.604;23.496;2022-11-23T06:03:11;3.67;;;2.47;;
6868;SDS011;3473;42.604;23.496;2022-11-23T06:04:42;5.23;;;2.13;;
6868;SDS011;3473;42.604;23.496;2022-11-23T06:06:13;7.50;;;2.47;;
6868;SDS011;3473;42.604;23.496;2022-11-23T06:07:45;4.37;;;1.80;;
6868;SDS011;3473;42.604;23.496;2022-11-23T06:09:16;2.27;;;1.97;;
6868;SDS011;3473;42.604;23.496;2022-11-23T06:10:48;2.87;;;1.40;;
6868;SDS011;3473;42.604;23.496;2022-11-23T06:12:19;4.50;;;1.73;;
6868;SDS011;3473;42.604;23.496;2022-11-23T06:13:51;1.83;;;0.90;;
6868;SDS011;3473;42.604;23.496;2022-11-23T06:15:23;3.87;;;1.63;;
6868;SDS011;3473;42.604;23.496;2022-11-23T06:16:55;3.53;;;1.87;;
6868;SDS011;3473;42.604;23.496;2022-11-23T06:18:26;1.50;;;1.13;;
6868;SDS011;3473;42.604;23.496;2022-11-23T06:19:58;5.97;;;2.03;;
6868;SDS011;3473;42.604;23.496;2022-11-23T06:21:29;5.33;;;3.13;;
6868;SDS011;3473;42.604;23.496;2022-11-23T06:23:01;1.83;;;1.23;;
6868;SDS011;3473;42.604;23.496;2022-11-23T06:24:32;3.40;;;1.93;;
6868;SDS011;3473;42.604;23.496;2022-11-23T06:26:04;5.20;;;2.63;;
6868;SDS011;3473;42.604;23.496;2022-11-23T06:27:35;7.37;;;3.30;;
6868;SDS011;3473;42.604;23.496;2022-11-23T06:29:06;5.80;;;2.37;;
6868;SDS011;3473;42.604;23.496;2022-11-23T06:30:38;6.20;;;2.40;;
6868;SDS011;3473;42.604;23.496;2022-11-23T06:32:10;7.50;;;3.47;;
6868;SDS011;3473;42.604;23.496;2022-11-23T06:33:41;4.73;;;2.60;;
6868;SDS011;3473;42.604;23.496;2022-11-23T06:35:13;6.33;;;2.97;;
6868;SDS011;3473;42.604;23.496;2022-11-23T06:36:43;6.00;;;2.77;;
6868;SDS011;3473;42.604;23.496;2022-11-23T06:38:15;7.33;;;3.00;;
6868;SDS011;3473;42.604;23.496;2022-11-23T06:39:46;3.77;;;2.63;;
6868;SDS011;3473;42.604;23.496;2022-11-23T06:41:18;5.27;;;2.00;;
6868;SDS011;3473;42.604;23.496;2022-11-23T06:42:49;3.77;;;2.03;;
6868;SDS011;3473;42.604;23.496;2022-11-23T06:44:20;3.43;;;1.80;;
6868;SDS011;3473;42.604;23.496;2022-11-23T06:45:53;5.13;;;2.70;;
6868;SDS011;3473;42.604;23.496;2022-11-23T06:47:24;5.47;;;2.90;;
6868;SDS011;3473;42.604;23.496;2022-11-23T06:48:55;6.73;;;2.47;;
6868;SDS011;3473;42.604;23.496;2022-11-23T06:50:27;11.40;;;3.40;;
6868;SDS011;3473;42.604;23.496;2022-11-23T06:51:58;4.63;;;2.53;;
6868;SDS011;3473;42.604;23.496;2022-11-23T06:53:30;5.50;;;2.50;;
6868;SDS011;3473;42.604;23.496;2022-11-23T06:55:01;9.07;;;3.77;;
6868;SDS011;3473;42.604;23.496;2022-11-23T06:56:33;8.07;;;3.40;;
6868;SDS011;3473;42.604;23.496;2022-11-23T06:58:04;8.73;;;4.03;;
6868;SDS011;3473;42.604;23.496;2022-11-23T06:59:36;11.70;;;4.00;;
6868;SDS011;3473;42.604;23.496;2022-11-23T07:01:09;11.63;;;4.87;;
6868;SDS011;3473;42.604;23.496;2022-11-23T07:02:40;10.67;;;5.23;;
6868;SDS011;3473;42.604;23.496;2022-11-23T07:04:12;9.93;;;4.67;;
6868;SDS011;3473;42.604;23.496;2022-11-23T07:05:43;8.33;;;3.50;;
6868;SDS011;3473;42.604;23.496;2022-11-23T07:07:15;3.77;;;2.23;;
6868;SDS011;3473;42.604;23.496;2022-11-23T07:08:46;3.13;;;2.47;;
6868;SDS011;3473;42.604;23.496;2022-11-23T07:10:18;5.73;;;2.97;;
6868;SDS011;3473;42.604;23.496;2022-11-23T07:11:50;8.73;;;3.47;;
6868;SDS011;3473;42.604;23.496;2022-11-23T07:13:21;10.07;;;4.07;;
6868;SDS011;3473;42.604;23.496;2022-11-23T07:14:52;5.47;;;3.00;;
6868;SDS011;3473;42.604;23.496;2022-11-23T07:16:25;4.87;;;3.00;;
6868;SDS011;3473;42.604;23.496;2022-11-23T07:17:57;3.77;;;2.40;;
6868;SDS011;3473;42.604;23.496;2022-11-23T07:19:28;6.17;;;2.43;;
6868;SDS011;3473;42.604;23.496;2022-11-23T07:21:00;5.97;;;2.27;;
6868;SDS011;3473;42.604;23.496;2022-11-23T07:22:31;4.57;;;1.97;;
6868;SDS011;3473;42.604;23.496;2022-11-23T07:24:03;2.93;;;1.93;;
6868;SDS011;3473;42.604;23.496;2022-11-23T07:25:35;2.83;;;2.03;;
6868;SDS011;3473;42.604;23.496;2022-11-23T07:27:06;4.33;;;2.80;;
6868;SDS011;3473;42.604;23.496;2022-11-23T07:28:38;11.87;;;4.33;;
6868;SDS011;3473;42.604;23.496;2022-11-23T07:30:10;8.57;;;2.50;;
6868;SDS011;3473;42.604;23.496;2022-11-23T07:31:43;8.83;;;3.47;;
6868;SDS011;3473;42.604;23.496;2022-11-23T07:33:14;10.63;;;4.27;;
6868;SDS011;3473;42.604;23.496;2022-11-23T07:34:46;9.73;;;5.20;;
6868;SDS011;3473;42.604;23.496;2022-11-23T07:36:17;8.20;;;3.43;;
6868;SDS011;3473;42.604;23.496;2022-11-23T07:37:49;6.57;;;2.50;;
6868;SDS011;3473;42.604;23.496;2022-11-23T07:39:20;3.63;;;2.30;;
6868;SDS011;3473;42.604;23.496;2022-11-23T07:40:52;5.17;;;2.83;;
6868;SDS011;3473;42.604;23.496;2022-11-23T07:42:23;3.97;;;2.30;;
6868;SDS011;3473;42.604;23.496;2022-11-23T07:43:55;3.90;;;2.10;;
6868;SDS011;3473;42.604;23.496;2022-11-23T07:45:26;5.37;;;2.57;;
6868;SDS011;3473;42.604;23.496;2022-11-23T07:46:59;4.33;;;2.33;;
6868;SDS011;3473;42.604;23.496;2022-11-23T07:48:30;5.33;;;1.87;;
6868;SDS011;3473;42.604;23.496;2022-11-23T07:50:02;4.87;;;2.07;;
6868;SDS011;3473;42.604;23.496;2022-11-23T07:51:34;3.80;;;1.90;;
6868;SDS011;3473;42.604;23.496;2022-11-23T07:53:05;4.60;;;2.27;;
6868;SDS011;3473;42.604;23.496;2022-11-23T07:54:37;3.73;;;1.80;;
6868;SDS011;3473;42.604;23.496;2022-11-23T07:56:08;5.97;;;2.47;;
6868;SDS011;3473;42.604;23.496;2022-11-23T07:57:40;1.50;;;1.30;;
6868;SDS011;3473;42.604;23.496;2022-11-23T07:59:11;1.97;;;1.27;;
6868;SDS011;3473;42.604;23.496;2022-11-23T08:00:43;3.43;;;1.67;;
6868;SDS011;3473;42.604;23.496;2022-11-23T08:02:16;3.30;;;2.17;;
6868;SDS011;3473;42.604;23.496;2022-11-23T08:03:47;8.03;;;2.97;;
6868;SDS011;3473;42.604;23.496;2022-11-23T08:05:19;13.77;;;2.83;;
6868;SDS011;3473;42.604;23.496;2022-11-23T08:06:50;8.60;;;3.60;;
6868;SDS011;3473;42.604;23.496;2022-11-23T08:08:23;6.37;;;2.87;;
6868;SDS011;3473;42.604;23.496;2022-11-23T08:09:54;6.43;;;2.97;;
6868;SDS011;3473;42.604;23.496;2022-11-23T08:11:26;4.80;;;2.57;;
6868;SDS011;3473;42.604;23.496;2022-11-23T08:12:58;4.37;;;3.17;;
6868;SDS011;3473;42.604;23.496;2022-11-23T08:14:29;5.93;;;2.83;;
6868;SDS011;3473;42.604;23.496;2022-11-23T08:16:01;5.67;;;3.00;;
6868;SDS011;3473;42.604;23.496;2022-11-23T08:17:34;4.73;;;2.27;;
6868;SDS011;3473;42.604;23.496;2022-11-23T08:19:05;5.47;;;2.67;;
6868;SDS011;3473;42.604;23.496;2022-11-23T08:20:37;7.07;;;2.80;;
6868;SDS011;3473;42.604;23.496;2022-11-23T08:22:08;6.27;;;3.20;;
6868;SDS011;3473;42.604;23.496;2022-11-23T08:23:40;6.20;;;3.07;;
6868;SDS011;3473;42.604;23.496;2022-11-23T08:25:11;5.33;;;2.97;;
6868;SDS011;3473;42.604;23.496;2022-11-23T08:26:42;3.70;;;2.30;;
6868;SDS011;3473;42.604;23.496;2022-11-23T08:28:14;6.90;;;2.83;;
6868;SDS011;3473;42.604;23.496;2022-11-23T08:29:45;7.37;;;3.27;;
6868;SDS011;3473;42.604;23.496;2022-11-23T08:31:17;6.13;;;2.63;;
6868;SDS011;3473;42.604;23.496;2022-11-23T08:32:50;6.00;;;3.00;;
6868;SDS011;3473;42.604;23.496;2022-11-23T08:34:21;5.73;;;2.77;;
6868;SDS011;3473;42.604;23.496;2022-11-23T08:35:53;4.50;;;2.37;;
6868;SDS011;3473;42.604;23.496;2022-11-23T08:37:24;5.50;;;2.60;;
6868;SDS011;3473;42.604;23.496;2022-11-23T08:38:56;8.03;;;3.27;;
6868;SDS011;3473;42.604;23.496;2022-11-23T08:40:27;7.73;;;3.83;;
6868;SDS011;3473;42.604;23.496;2022-11-23T08:41:59;6.30;;;2.47;;
6868;SDS011;3473;42.604;23.496;2022-11-23T08:43:30;6.20;;;3.57;;
6868;SDS011;3473;42.604;23.496;2022-11-23T08:45:02;5.50;;;2.87;;
6868;SDS011;3473;42.604;23.496;2022-11-23T08:46:34;3.87;;;2.10;;
6868;SDS011;3473;42.604;23.496;2022-11-23T08:48:08;4.17;;;2.43;;
6868;SDS011;3473;42.604;23.496;2022-11-23T08:49:39;4.37;;;2.27;;
6868;SDS011;3473;42.604;23.496;2022-11-23T08:51:11;3.90;;;2.33;;
6868;SDS011;3473;42.604;23.496;2022-11-23T08:52:42;5.80;;;2.73;;
6868;SDS011;3473;42.604;23.496;2022-11-23T08:54:14;3.47;;;1.77;;
6868;SDS011;3473;42.604;23.496;2022-11-23T08:55:45;2.50;;;1.70;;
6868;SDS011;3473;42.604;23.496;2022-11-23T08:57:17;3.93;;;2.30;;
6868;SDS011;3473;42.604;23.496;2022-11-23T08:58:48;2.63;;;2.00;;
6868;SDS011;3473;42.604;23.496;2022-11-23T09:00:20;3.17;;;1.93;;
6868;SDS011;3473;42.604;23.496;2022-11-23T09:01:50;6.13;;;2.43;;
6868;SDS011;3473;42.604;23.496;2022-11-23T09:03:23;3.73;;;1.90;;
6868;SDS011;3473;42.604;23.496;2022-11-23T09:04:55;3.87;;;2.20;;
6868;SDS011;3473;42.604;23.496;2022-11-23T09:06:26;3.87;;;2.13;;
6868;SDS011;3473;42.604;23.496;2022-11-23T09:07:58;4.00;;;1.93;;
6868;SDS011;3473;42.604;23.496;2022-11-23T09:09:30;8.03;;;3.07;;
6868;SDS011;3473;42.604;23.496;2022-11-23T09:11:01;17.53;;;7.70;;
6868;SDS011;3473;42.604;23.496;2022-11-23T09:12:33;10.27;;;4.30;;
6868;SDS011;3473;42.604;23.496;2022-11-23T09:14:05;4.43;;;2.53;;
6868;SDS011;3473;42.604;23.496;2022-11-23T09:15:36;5.83;;;3.20;;
6868;SDS011;3473;42.604;23.496;2022-11-23T09:17:08;4.23;;;1.97;;
6868;SDS011;3473;42.604;23.496;2022-11-23T09:18:41;3.10;;;2.07;;
6868;SDS011;3473;42.604;23.496;2022-11-23T09:20:12;3.90;;;1.63;;